createdAt,value
2016-08-24T15:44:21.700Z,62.16
2016-08-24T15:45:06.799Z,62.16
2016-08-24T15:46:06.787Z,61.55
2016-08-24T15:47:06.800Z,61.87
2016-08-24T15:48:06.797Z,61.68
2016-08-24T15:49:06.805Z,61.68
2016-08-24T15:50:06.835Z,61.65
2016-08-24T15:51:06.855Z,61.74
2016-08-24T15:52:06.851Z,61.45
2016-08-24T15:53:06.837Z,61.45
2016-08-24T15:54:06.850Z,61.38
2016-08-24T15:55:06.859Z,61.55
2016-08-24T15:56:06.878Z,61.55
2016-08-24T15:57:06.887Z,61.65
2016-08-24T15:58:06.896Z,61.45
2016-08-24T15:59:06.893Z,60.97
2016-08-24T16:00:06.908Z,61.07
2016-08-24T16:01:06.934Z,60.97
2016-08-24T16:02:06.946Z,61.07
2016-08-24T16:03:06.935Z,60.97
2016-08-24T16:04:06.954Z,60.97
2016-08-24T16:05:06.962Z,60.68
2016-08-24T16:06:06.966Z,60.68
2016-08-24T16:07:06.998Z,60.68
2016-08-24T16:08:07.011Z,60.77
2016-08-24T16:09:07.004Z,60.77
2016-08-24T16:10:07.007Z,60.68
2016-08-24T16:11:07.040Z,60.77
2016-08-24T16:12:07.039Z,60.74
2016-08-24T16:13:07.041Z,60.77
2016-08-24T16:14:07.055Z,60.97
2016-08-24T16:15:07.080Z,61.07
2016-08-24T16:16:07.084Z,60.97
2016-08-24T16:17:07.105Z,61.04
2016-08-24T16:18:07.106Z,60.97
2016-08-24T16:19:07.102Z,61.32
2016-08-24T16:20:07.133Z,61.22
2016-08-24T16:21:07.132Z,61.13
2016-08-24T16:22:07.138Z,61.04
2016-08-24T16:23:07.169Z,61.04
2016-08-24T16:24:07.169Z,61.13
2016-08-24T16:25:07.182Z,60.94
2016-08-24T16:26:07.198Z,61.04
2016-08-24T16:27:07.194Z,61.13
2016-08-24T16:28:07.205Z,60.94
2016-08-24T16:29:07.211Z,60.94
2016-08-24T16:30:07.231Z,61.22
2016-08-24T16:31:07.241Z,61.22
2016-08-24T16:32:07.253Z,61.22
2016-08-24T16:33:07.250Z,61.04
2016-08-24T16:34:07.272Z,61.13
2016-08-24T16:35:07.289Z,61.13
2016-08-24T16:36:07.303Z,61.61
2016-08-24T16:37:07.292Z,61.61
2016-08-24T16:38:07.301Z,61.13
2016-08-24T16:39:07.331Z,61.61
2016-08-24T16:40:07.337Z,61.52
2016-08-24T16:41:07.360Z,61.42
2016-08-24T16:42:07.361Z,61.39
2016-08-24T16:43:07.372Z,61.32
2016-08-24T16:44:07.368Z,61.61
2016-08-24T16:45:07.381Z,61.29
2016-08-24T16:46:07.410Z,61.58
2016-08-24T16:47:07.420Z,61.71
2016-08-24T16:48:07.420Z,61.71
2016-08-24T16:49:07.430Z,61.68
2016-08-24T16:50:07.444Z,61.88
2016-08-24T16:51:07.458Z,61.78
2016-08-24T16:52:07.459Z,61.88
2016-08-24T16:53:07.472Z,61.88
2016-08-24T16:54:07.488Z,61.88
2016-08-24T16:55:07.497Z,61.88
2016-08-24T16:56:07.514Z,61.88
2016-08-24T16:57:07.513Z,61.88
2016-08-24T16:58:07.538Z,61.68
2016-08-24T16:59:07.557Z,61.98
2016-08-24T17:00:07.550Z,61.78
2016-08-24T17:01:07.573Z,61.88
2016-08-24T17:02:07.585Z,61.78
2016-08-24T17:03:07.603Z,61.78
2016-08-24T17:04:07.606Z,62.26
2016-08-24T17:05:07.591Z,62.26
2016-08-24T17:06:39.720Z,62.16
2016-08-24T17:07:07.641Z,62.16
2016-08-24T17:08:07.625Z,62.36
2016-08-24T17:09:07.648Z,62.07
2016-08-24T17:10:07.668Z,62.07
2016-08-24T17:11:07.678Z,62.26
2016-08-24T17:12:07.675Z,62.46
2016-08-24T17:13:07.685Z,61.94
2016-08-24T17:14:07.700Z,62.36
2016-08-24T17:15:07.706Z,62.16
2016-08-24T17:16:07.714Z,62.52
2016-08-24T17:17:07.734Z,62.23
2016-08-24T17:18:07.729Z,62.52
2016-08-24T17:19:07.768Z,62.82
2016-08-24T17:20:07.761Z,63.01
2016-08-24T17:21:07.770Z,62.75
2016-08-24T17:22:07.772Z,62.75
2016-08-24T17:23:07.807Z,62.91
2016-08-24T17:24:07.818Z,62.72
2016-08-24T17:25:07.821Z,62.82
2016-08-24T17:26:07.837Z,62.65
2016-08-24T17:27:07.835Z,63.01
2016-08-24T17:28:07.850Z,63.2
2016-08-24T17:29:07.864Z,63.1
2016-08-24T17:30:07.886Z,63.3
2016-08-24T17:31:07.876Z,63.1
2016-08-24T17:32:08.575Z,62.82
2016-08-24T17:33:07.907Z,62.62
2016-08-24T17:34:07.900Z,63.01
2016-08-24T17:35:07.935Z,63.01
2016-08-24T17:36:07.946Z,63.1
2016-08-24T17:37:07.935Z,62.82
2016-08-24T17:38:07.946Z,63.4
2016-08-24T17:39:07.956Z,63.59
2016-08-24T17:40:07.967Z,63.59
2016-08-24T17:41:07.999Z,63.2
2016-08-24T17:42:08.002Z,63.4
2016-08-24T17:43:08.001Z,63.3
2016-08-24T17:44:08.021Z,63.49
2016-08-24T17:45:08.040Z,63.49
2016-08-24T17:46:08.033Z,63.59
2016-08-24T17:47:08.055Z,63.49
2016-08-24T17:48:08.047Z,63.4
2016-08-24T17:49:08.070Z,63.59
2016-08-24T17:50:08.071Z,63.4
2016-08-24T17:51:08.102Z,63.3
2016-08-24T17:52:08.100Z,63.88
2016-08-24T17:53:08.109Z,63.78
2016-08-24T17:54:08.120Z,63.85
2016-08-24T17:55:08.123Z,63.95
2016-08-24T17:56:08.157Z,63.85
2016-08-24T17:57:08.155Z,64.24
2016-08-24T17:58:08.171Z,64.24
2016-08-24T17:59:08.187Z,64.24
2016-08-24T18:00:08.186Z,64.53
2016-08-24T18:01:08.213Z,64.53
2016-08-24T18:02:08.219Z,64.43
2016-08-24T18:03:08.222Z,64.53
2016-08-24T18:04:08.239Z,64.43
2016-08-24T18:05:08.242Z,64.92
2016-08-24T18:06:08.253Z,64.62
2016-08-24T18:07:08.251Z,64.72
2016-08-24T18:08:08.275Z,64.92
2016-08-24T18:09:08.274Z,64.62
2016-08-24T18:10:08.297Z,64.62
2016-08-24T18:11:08.295Z,64.62
2016-08-24T18:12:08.318Z,64.53
2016-08-24T18:13:08.325Z,64.92
2016-08-24T18:14:08.337Z,64.82
2016-08-24T18:15:08.337Z,65.01
2016-08-24T18:16:08.364Z,64.82
2016-08-24T18:17:08.355Z,64.82
2016-08-24T18:18:08.361Z,65.01
2016-08-24T18:19:08.368Z,64.82
2016-08-24T18:20:08.393Z,64.92
2016-08-24T18:21:08.402Z,64.62
2016-08-24T18:22:08.410Z,64.43
2016-08-24T18:23:08.426Z,64.53
2016-08-24T18:24:08.425Z,64.59
2016-08-24T18:25:08.447Z,64.92
2016-08-24T18:26:08.456Z,64.82
2016-08-24T18:27:08.467Z,64.82
2016-08-24T18:28:08.490Z,65.11
2016-08-24T18:29:08.482Z,65.11
2016-08-24T18:30:08.500Z,65.11
2016-08-24T18:31:08.513Z,65.2
2016-08-24T18:32:08.508Z,64.82
2016-08-24T18:33:08.527Z,65.01
2016-08-24T18:34:08.548Z,64.72
2016-08-24T18:35:08.552Z,64.34
2016-08-24T18:36:08.557Z,64.53
2016-08-24T18:37:08.578Z,64.43
2016-08-24T18:38:08.578Z,64.72
2016-08-24T18:39:08.592Z,65.01
2016-08-24T18:40:08.587Z,64.82
2016-08-24T18:41:08.605Z,64.72
2016-08-24T18:42:08.628Z,65.01
2016-08-24T18:43:08.634Z,64.53
2016-08-24T18:44:08.653Z,64.53
2016-08-24T18:45:08.661Z,64.82
2016-08-24T18:46:08.652Z,64.92
2016-08-24T18:47:08.687Z,64.53
2016-08-24T18:48:08.680Z,65.11
2016-08-24T18:49:08.683Z,64.82
2016-08-24T18:50:08.696Z,64.72
2016-08-24T18:51:08.705Z,64.34
2016-08-24T18:52:08.744Z,64.43
2016-08-24T18:53:08.728Z,64.34
2016-08-24T18:54:08.760Z,64.43
2016-08-24T18:55:08.769Z,64.62
2016-08-24T18:56:08.781Z,64.43
2016-08-24T18:57:08.781Z,64.53
2016-08-24T18:58:08.799Z,64.53
2016-08-24T18:59:08.805Z,64.62
2016-08-24T19:00:08.825Z,64.53
2016-08-24T19:01:08.811Z,64.43
2016-08-24T19:02:08.844Z,64.53
2016-08-24T19:03:08.870Z,64.43
2016-08-24T19:04:08.850Z,64.53
2016-08-24T19:05:08.852Z,64.34
2016-08-24T19:06:08.869Z,64.34
2016-08-24T19:07:08.898Z,64.62
2016-08-24T19:08:08.889Z,64.92
2016-08-24T19:09:08.905Z,64.72
2016-08-24T19:10:08.934Z,64.62
2016-08-24T19:11:08.937Z,64.62
2016-08-24T19:12:08.948Z,64.62
2016-08-24T19:13:08.952Z,64.43
2016-08-24T19:14:08.968Z,64.62
2016-08-24T19:15:08.958Z,64.72
2016-08-24T19:16:08.980Z,64.62
2016-08-24T19:17:08.991Z,64.34
2016-08-24T19:18:09.008Z,64.43
2016-08-24T19:19:09.016Z,64.72
2016-08-24T19:20:09.012Z,64.53
2016-08-24T19:21:09.025Z,64.43
2016-08-24T19:22:09.054Z,64.53
2016-08-24T19:23:09.065Z,64.72
2016-08-24T19:24:09.074Z,64.53
2016-08-24T19:25:09.079Z,64.53
2016-08-24T19:26:09.104Z,64.53
2016-08-24T19:27:09.096Z,64.43
2016-08-24T19:28:09.102Z,64.62
2016-08-24T19:29:09.104Z,64.43
2016-08-24T19:30:09.129Z,64.53
2016-08-24T19:31:09.126Z,64.53
2016-08-24T19:32:09.149Z,64.53
2016-08-24T19:33:09.149Z,64.53
2016-08-24T19:34:09.167Z,64.5
2016-08-24T19:35:09.179Z,64.53
2016-08-24T19:36:09.194Z,64.53
2016-08-24T19:37:09.188Z,64.53
2016-08-24T19:38:09.206Z,64.59
2016-08-24T19:39:09.207Z,64.43
2016-08-24T19:40:09.240Z,64.59
2016-08-24T19:41:09.242Z,64.4
2016-08-24T19:42:09.242Z,64.5
2016-08-24T19:43:09.274Z,64.59
2016-08-24T19:44:09.369Z,64.34
2016-08-24T19:45:09.276Z,64.62
2016-08-24T19:46:09.281Z,64.62
2016-08-24T19:47:09.307Z,64.34
2016-08-24T19:48:09.304Z,64.5
2016-08-24T19:49:09.312Z,64.34
2016-08-24T19:50:09.325Z,64.5
2016-08-24T19:51:09.359Z,64.34
2016-08-24T19:52:09.353Z,64.53
2016-08-24T19:53:09.370Z,64.5
2016-08-24T19:54:09.367Z,64.43
2016-08-24T19:55:09.398Z,64.69
2016-08-24T19:56:09.406Z,64.5
2016-08-24T19:57:09.394Z,64.72
2016-08-24T19:58:09.430Z,64.72
2016-08-24T19:59:09.443Z,64.59
2016-08-24T20:00:09.441Z,64.2
2016-08-24T20:01:09.461Z,64.43
2016-08-24T20:02:09.466Z,64.69
2016-08-24T20:03:09.456Z,64.5
2016-08-24T20:04:10.174Z,64.5
2016-08-24T20:05:09.482Z,64.59
2016-08-24T20:06:09.501Z,64.98
2016-08-24T20:07:09.521Z,64.89
2016-08-24T20:08:09.540Z,64.69
2016-08-24T20:09:09.528Z,65.08
2016-08-24T20:10:09.549Z,64.79
2016-08-24T20:11:09.554Z,64.79
2016-08-24T20:12:09.559Z,64.5
2016-08-24T20:13:09.575Z,64.89
2016-08-24T20:14:09.594Z,64.79
2016-08-24T20:15:09.604Z,64.69
2016-08-24T20:16:09.600Z,64.5
2016-08-24T20:17:09.610Z,64.59
2016-08-24T20:18:09.624Z,64.89
2016-08-24T20:19:09.636Z,64.79
2016-08-24T20:20:09.661Z,64.59
2016-08-24T20:21:09.686Z,64.69
2016-08-24T20:22:09.679Z,64.79
2016-08-24T20:23:09.696Z,64.89
2016-08-24T20:24:09.692Z,64.5
2016-08-24T20:25:09.706Z,64.89
2016-08-24T20:26:09.711Z,64.79
2016-08-24T20:27:09.715Z,64.98
2016-08-24T20:28:09.740Z,64.89
2016-08-24T20:29:09.749Z,64.89
2016-08-24T20:30:09.753Z,64.4
2016-08-24T20:31:09.754Z,64.98
2016-08-24T20:32:09.761Z,64.79
2016-08-24T20:33:09.789Z,64.98
2016-08-24T20:34:09.780Z,64.98
2016-08-24T20:35:09.808Z,64.69
2016-08-24T20:36:09.804Z,64.69
2016-08-24T20:37:09.831Z,64.69
2016-08-24T20:38:09.828Z,64.79
2016-08-24T20:39:09.839Z,64.98
2016-08-24T20:40:09.858Z,64.89
2016-08-24T20:41:09.867Z,64.79
2016-08-24T20:42:09.877Z,64.69
2016-08-24T20:43:09.887Z,64.89
2016-08-24T20:44:10.626Z,64.89
2016-08-24T20:45:09.914Z,64.89
2016-08-24T20:46:09.909Z,64.4
2016-08-24T20:47:09.931Z,64.59
2016-08-24T20:48:09.925Z,64.59
2016-08-24T20:49:09.943Z,64.59
2016-08-24T20:50:09.952Z,64.5
2016-08-24T20:51:09.954Z,64.59
2016-08-24T20:52:09.969Z,64.59
2016-08-24T20:53:09.977Z,64.4
2016-08-24T20:54:09.994Z,64.89
2016-08-24T20:55:10.013Z,64.5
2016-08-24T20:56:10.031Z,64.59
2016-08-24T20:57:10.024Z,64.69
2016-08-24T20:58:10.049Z,64.98
2016-08-24T20:59:10.049Z,64.37
2016-08-24T21:00:10.045Z,64.98
2016-08-24T21:01:10.061Z,64.56
2016-08-24T21:02:10.088Z,64.56
2016-08-24T21:03:10.081Z,64.59
2016-08-24T21:04:10.093Z,64.5
2016-08-24T21:05:10.118Z,64.79
2016-08-24T21:06:10.116Z,65.08
2016-08-24T21:07:10.120Z,64.79
2016-08-24T21:08:10.155Z,64.89
2016-08-24T21:09:10.151Z,65.17
2016-08-24T21:10:10.163Z,65.14
2016-08-24T21:11:10.163Z,64.89
2016-08-24T21:12:10.191Z,64.75
2016-08-24T21:13:10.201Z,65.14
2016-08-24T21:14:10.193Z,65.14
2016-08-24T21:15:10.203Z,64.95
2016-08-24T21:16:10.230Z,65.05
2016-08-24T21:17:10.234Z,65.14
2016-08-24T21:18:10.232Z,65.08
2016-08-24T21:19:10.251Z,65.05
2016-08-24T21:20:10.259Z,65.34
2016-08-24T21:21:10.281Z,65.05
2016-08-24T21:22:10.300Z,65.05
2016-08-24T21:23:10.303Z,65.34
2016-08-24T21:24:10.298Z,65.43
2016-08-24T21:25:10.306Z,65.43
2016-08-24T21:26:10.333Z,65.43
2016-08-24T21:27:10.330Z,65.47
2016-08-24T21:28:10.350Z,65.14
2016-08-24T21:29:10.367Z,65.05
2016-08-24T21:30:10.370Z,65.05
2016-08-24T21:31:10.371Z,65.34
2016-08-24T21:32:10.394Z,65.34
2016-08-24T21:33:10.412Z,65.05
2016-08-24T21:34:10.409Z,65.05
2016-08-24T21:35:10.402Z,65.14
2016-08-24T21:36:10.419Z,65.14
2016-08-24T21:37:10.429Z,65.34
2016-08-24T21:38:10.454Z,65.24
2016-08-24T21:39:10.446Z,65.14
2016-08-24T21:40:10.452Z,65.34
2016-08-24T21:41:10.483Z,65.24
2016-08-24T21:42:10.491Z,65.05
2016-08-24T21:43:10.488Z,65.24
2016-08-24T21:44:10.518Z,65.24
2016-08-24T21:45:10.520Z,65.24
2016-08-24T21:46:10.534Z,64.95
2016-08-24T21:47:10.549Z,65.14
2016-08-24T21:48:10.535Z,65.05
2016-08-24T21:49:10.565Z,65.14
2016-08-24T21:50:10.570Z,65.14
2016-08-24T21:51:10.564Z,65.14
2016-08-24T21:52:10.596Z,65.05
2016-08-24T21:53:10.586Z,65.14
2016-08-24T21:54:10.615Z,65.14
2016-08-24T21:55:10.620Z,65.14
2016-08-24T21:56:10.626Z,65.14
2016-08-24T21:57:10.626Z,65.14
2016-08-24T21:58:10.665Z,65.14
2016-08-24T21:59:10.668Z,65.14
2016-08-24T22:00:10.668Z,65.05
2016-08-24T22:01:10.679Z,65.05
2016-08-24T22:02:10.677Z,65.14
2016-08-24T22:03:10.710Z,65.05
2016-08-24T22:04:10.697Z,65.14
2016-08-24T22:05:10.711Z,65.14
2016-08-24T22:06:10.739Z,65.14
2016-08-24T22:07:10.745Z,65.14
2016-08-24T22:08:10.738Z,65.05
2016-08-24T22:09:10.745Z,65.05
2016-08-24T22:10:10.774Z,65.14
2016-08-24T22:11:10.768Z,65.05
2016-08-24T22:12:10.791Z,65.14
2016-08-24T22:13:10.795Z,65.14
2016-08-24T22:14:10.807Z,65.14
2016-08-24T22:15:10.824Z,65.05
2016-08-24T22:16:10.834Z,65.14
2016-08-24T22:17:10.843Z,65.14
2016-08-24T22:18:10.842Z,65.05
2016-08-24T22:19:10.877Z,65.05
2016-08-24T22:20:10.868Z,65.05
2016-08-24T22:21:10.890Z,65.05
2016-08-24T22:22:10.877Z,65.14
2016-08-24T22:23:10.893Z,65.24
2016-08-24T22:24:10.907Z,65.14
2016-08-24T22:25:10.923Z,65.24
2016-08-24T22:26:10.933Z,65.14
2016-08-24T22:27:10.952Z,65.14
2016-08-24T22:28:10.942Z,65.24
2016-08-24T22:29:10.965Z,65.34
2016-08-24T22:30:10.967Z,65.14
2016-08-24T22:31:10.979Z,65.24
2016-08-24T22:32:11.002Z,65.24
2016-08-24T22:33:11.019Z,65.05
2016-08-24T22:34:11.005Z,65.05
2016-08-24T22:35:11.031Z,65.24
2016-08-24T22:36:11.032Z,65.2
2016-08-24T22:37:11.029Z,65.14
2016-08-24T22:38:11.036Z,65.24
2016-08-24T22:39:11.055Z,65.05
2016-08-24T22:40:11.078Z,65.05
2016-08-24T22:41:11.090Z,65.05
2016-08-24T22:42:11.093Z,65.24
2016-08-24T22:43:11.113Z,65.14
2016-08-24T22:44:11.107Z,65.24
2016-08-24T22:45:11.110Z,65.14
2016-08-24T22:46:11.133Z,65.34
2016-08-24T22:47:11.149Z,65.14
2016-08-24T22:48:11.152Z,64.95
2016-08-24T22:49:11.153Z,65.05
2016-08-24T22:50:11.163Z,65.05
2016-08-24T22:51:11.167Z,65.34
2016-08-24T22:52:11.197Z,65.24
2016-08-24T22:53:11.206Z,65.24
2016-08-24T22:54:11.209Z,65.34
2016-08-24T22:55:11.226Z,65.24
2016-08-24T22:56:11.237Z,65.05
2016-08-24T22:57:11.265Z,65.24
2016-08-24T22:58:11.243Z,65.2
2016-08-24T22:59:11.251Z,65.24
2016-08-24T23:00:11.276Z,65.14
2016-08-24T23:01:11.294Z,65.05
2016-08-24T23:02:11.300Z,65.2
2016-08-24T23:03:11.299Z,65.11
2016-08-24T23:04:11.296Z,65.24
2016-08-24T23:05:11.323Z,65.2
2016-08-24T23:06:11.333Z,65.11
2016-08-24T23:07:11.336Z,65.2
2016-08-24T23:08:11.360Z,65.2
2016-08-24T23:09:11.367Z,65.34
2016-08-24T23:10:11.359Z,65.01
2016-08-24T23:11:11.390Z,65.3
2016-08-24T23:12:11.392Z,65.3
2016-08-24T23:13:11.409Z,65.11
2016-08-24T23:14:11.422Z,64.92
2016-08-24T23:15:11.415Z,65.3
2016-08-24T23:16:11.424Z,65.11
2016-08-24T23:17:11.443Z,65.3
2016-08-24T23:18:11.474Z,65.11
2016-08-24T23:19:11.448Z,65.11
2016-08-24T23:20:11.465Z,65.11
2016-08-24T23:21:11.489Z,65.11
2016-08-24T23:22:11.497Z,65.11
2016-08-24T23:23:11.483Z,65.11
2016-08-24T23:24:11.507Z,65.11
2016-08-24T23:25:11.507Z,65.3
2016-08-24T23:26:11.519Z,65.11
2016-08-24T23:27:11.542Z,65.11
2016-08-24T23:28:11.546Z,65.3
2016-08-24T23:29:11.551Z,65.11
2016-08-24T23:30:11.557Z,65.11
2016-08-24T23:31:11.573Z,65.11
2016-08-24T23:32:11.599Z,65.11
2016-08-24T23:33:11.617Z,64.92
2016-08-24T23:34:11.595Z,64.92
2016-08-24T23:35:11.616Z,65.01
2016-08-24T23:36:11.640Z,65.01
2016-08-24T23:37:11.641Z,65.01
2016-08-24T23:38:11.660Z,65.01
2016-08-24T23:39:11.661Z,65.01
2016-08-24T23:40:11.663Z,65.11
2016-08-24T23:41:11.673Z,65.11
2016-08-24T23:42:11.698Z,65.01
2016-08-24T23:43:11.707Z,65.11
2016-08-24T23:44:11.707Z,65.11
2016-08-24T23:45:11.712Z,65.3
2016-08-24T23:46:11.729Z,65.3
2016-08-24T23:47:11.736Z,65.2
2016-08-24T23:48:11.743Z,65.4
2016-08-24T23:49:11.771Z,65.4
2016-08-24T23:50:11.771Z,65.5
2016-08-24T23:51:11.763Z,65.4
2016-08-24T23:52:11.784Z,65.3
2016-08-24T23:53:11.792Z,65.4
2016-08-24T23:54:11.801Z,65.11
2016-08-24T23:55:11.826Z,65.4
2016-08-24T23:56:11.829Z,65.2
2016-08-24T23:57:11.832Z,65.2
2016-08-24T23:58:11.847Z,65.3
2016-08-24T23:59:11.854Z,65.3
